Terminal Aerodrome Forecast
Issued by NWS Spokane, WA

Home | Current Version | Previous Version | Text Only | Print | Product List | Glossary On
Versions: 1 2 3 4 5 6 7 8 9 10 11 12 13 14 15 16
000
FTUS46 KOTX 241848 CCA
TAFLWS
TAF COR
KLWS 241848Z 2418/2518 29004KT P6SM -SHRA BKN025 OVC060
     FM242100 29004KT P6SM -SHRA SCT025 BKN040 OVC060
     FM250100 22004KT P6SM VCSH BKN050 OVC070
     FM250400 22004KT P6SM -RA OVC050
     FM250700 22004KT P6SM -RA OVC030
     FM251700 24004KT P6SM VCSH SCT030 BKN100=

USA.gov is the U.S. government's official web portal to all federal, state and local government web resources and services.